sensor_id;sensor_type;location;lat;lon;timestamp;pressure;altitude;pressure_sealevel;temperature;humidity
38780;BME280;29273;49.962;9.768;2023-06-22T00:01:18;100022.91;;;24.64;57.36
38780;BME280;29273;49.962;9.768;2023-06-22T00:03:44;100027.53;;;24.63;57.30
38780;BME280;29273;49.962;9.768;2023-06-22T00:06:09;100025.59;;;24.64;57.14
38780;BME280;29273;49.962;9.768;2023-06-22T00:08:35;100030.22;;;24.63;57.36
38780;BME280;29273;49.962;9.768;2023-06-22T00:11:00;100015.06;;;24.62;57.43
38780;BME280;29273;49.962;9.768;2023-06-22T00:13:26;100003.16;;;24.63;57.42
38780;BME280;29273;49.962;9.768;2023-06-22T00:15:51;99971.75;;;24.62;57.50
38780;BME280;29273;49.962;9.768;2023-06-22T00:18:17;99940.63;;;24.60;57.33
38780;BME280;29273;49.962;9.768;2023-06-22T00:20:42;99918.16;;;24.59;57.16
38780;BME280;29273;49.962;9.768;2023-06-22T00:23:08;99880.56;;;24.58;57.40
38780;BME280;29273;49.962;9.768;2023-06-22T00:25:35;99816.69;;;24.56;57.43
38780;BME280;29273;49.962;9.768;2023-06-22T00:28:02;99810.47;;;24.56;57.19
38780;BME280;29273;49.962;9.768;2023-06-22T00:30:27;99839.50;;;24.50;57.07
38780;BME280;29273;49.962;9.768;2023-06-22T00:32:56;99866.06;;;24.48;56.84
38780;BME280;29273;49.962;9.768;2023-06-22T00:35:22;99889.09;;;24.46;56.95
38780;BME280;29273;49.962;9.768;2023-06-22T00:37:47;99909.44;;;24.43;56.69
38780;BME280;29273;49.962;9.768;2023-06-22T00:40:13;99897.00;;;24.42;57.21
38780;BME280;29273;49.962;9.768;2023-06-22T00:42:40;99885.66;;;24.40;56.67
38780;BME280;29273;49.962;9.768;2023-06-22T00:45:07;99871.31;;;24.39;56.53
38780;BME280;29273;49.962;9.768;2023-06-22T00:47:34;99855.06;;;24.39;56.46
38780;BME280;29273;49.962;9.768;2023-06-22T00:50:05;99835.09;;;24.35;56.60
38780;BME280;29273;49.962;9.768;2023-06-22T00:52:32;99831.69;;;24.30;57.23
38780;BME280;29273;49.962;9.768;2023-06-22T00:55:01;99831.16;;;24.28;56.80
38780;BME280;29273;49.962;9.768;2023-06-22T00:57:27;99836.34;;;24.24;56.88
38780;BME280;29273;49.962;9.768;2023-06-22T00:59:55;99821.50;;;24.22;57.07
38780;BME280;29273;49.962;9.768;2023-06-22T01:02:21;99820.19;;;24.19;57.28
38780;BME280;29273;49.962;9.768;2023-06-22T01:04:46;99820.25;;;24.14;57.49
38780;BME280;29273;49.962;9.768;2023-06-22T01:10:05;99836.50;;;24.14;57.08
38780;BME280;29273;49.962;9.768;2023-06-22T01:12:35;99842.19;;;24.12;57.38
38780;BME280;29273;49.962;9.768;2023-06-22T01:15:10;99858.72;;;24.11;57.34
38780;BME280;29273;49.962;9.768;2023-06-22T01:17:40;99860.63;;;24.10;57.67
38780;BME280;29273;49.962;9.768;2023-06-22T01:20:10;99856.88;;;24.06;58.13
38780;BME280;29273;49.962;9.768;2023-06-22T01:22:57;99855.22;;;24.10;57.58
38780;BME280;29273;49.962;9.768;2023-06-22T01:25:53;99859.56;;;24.06;57.66
38780;BME280;29273;49.962;9.768;2023-06-22T01:28:40;99882.84;;;24.07;57.94
38780;BME280;29273;49.962;9.768;2023-06-22T01:31:10;99890.16;;;24.07;58.20
38780;BME280;29273;49.962;9.768;2023-06-22T01:33:39;99913.09;;;24.09;58.36
38780;BME280;29273;49.962;9.768;2023-06-22T01:36:06;99932.63;;;24.06;58.12
38780;BME280;29273;49.962;9.768;2023-06-22T01:38:33;99955.59;;;24.09;58.26
38780;BME280;29273;49.962;9.768;2023-06-22T01:41:00;99956.38;;;24.09;58.41
38780;BME280;29273;49.962;9.768;2023-06-22T01:43:30;99966.06;;;24.15;58.33
38780;BME280;29273;49.962;9.768;2023-06-22T01:45:56;99983.16;;;24.11;58.22
38780;BME280;29273;49.962;9.768;2023-06-22T01:48:22;100002.91;;;24.11;58.70
38780;BME280;29273;49.962;9.768;2023-06-22T01:50:49;100036.69;;;24.14;58.92
38780;BME280;29273;49.962;9.768;2023-06-22T01:53:14;100065.38;;;24.15;58.69
38780;BME280;29273;49.962;9.768;2023-06-22T01:55:40;100105.69;;;24.16;58.54
38780;BME280;29273;49.962;9.768;2023-06-22T01:58:05;100133.25;;;24.18;58.77
38780;BME280;29273;49.962;9.768;2023-06-22T02:00:33;100156.75;;;24.23;58.60
38780;BME280;29273;49.962;9.768;2023-06-22T02:03:12;100163.22;;;24.27;58.95
38780;BME280;29273;49.962;9.768;2023-06-22T02:05:43;100165.41;;;24.25;58.82
38780;BME280;29273;49.962;9.768;2023-06-22T02:08:29;100181.63;;;24.25;58.62
38780;BME280;29273;49.962;9.768;2023-06-22T02:10:59;100193.81;;;24.23;59.00
38780;BME280;29273;49.962;9.768;2023-06-22T02:13:26;100199.22;;;24.23;59.85
38780;BME280;29273;49.962;9.768;2023-06-22T02:15:53;100200.06;;;24.23;59.52
38780;BME280;29273;49.962;9.768;2023-06-22T02:18:18;100193.81;;;24.23;59.69
38780;BME280;29273;49.962;9.768;2023-06-22T02:20:46;100155.13;;;24.22;60.70
38780;BME280;29273;49.962;9.768;2023-06-22T02:23:11;100099.94;;;24.23;60.70
38780;BME280;29273;49.962;9.768;2023-06-22T02:25:37;100012.50;;;24.23;60.57
38780;BME280;29273;49.962;9.768;2023-06-22T02:28:03;99971.13;;;24.22;60.54
38780;BME280;29273;49.962;9.768;2023-06-22T02:30:29;99928.91;;;24.21;60.81
38780;BME280;29273;49.962;9.768;2023-06-22T02:32:54;99897.28;;;24.22;60.56
38780;BME280;29273;49.962;9.768;2023-06-22T02:35:26;99799.25;;;24.25;59.93
38780;BME280;29273;49.962;9.768;2023-06-22T02:37:51;99673.00;;;24.20;60.46
38780;BME280;29273;49.962;9.768;2023-06-22T02:40:17;99622.97;;;24.17;60.20
38780;BME280;29273;49.962;9.768;2023-06-22T02:42:43;99653.53;;;24.18;59.85
38780;BME280;29273;49.962;9.768;2023-06-22T02:45:08;99695.81;;;24.14;59.57
38780;BME280;29273;49.962;9.768;2023-06-22T02:47:34;99713.22;;;24.08;60.08
38780;BME280;29273;49.962;9.768;2023-06-22T02:50:00;99735.72;;;24.03;60.27
38780;BME280;29273;49.962;9.768;2023-06-22T02:52:26;99765.25;;;23.99;60.35
38780;BME280;29273;49.962;9.768;2023-06-22T02:54:52;99785.09;;;23.95;60.29
38780;BME280;29273;49.962;9.768;2023-06-22T02:57:18;99817.84;;;23.93;60.20
38780;BME280;29273;49.962;9.768;2023-06-22T02:59:43;99815.41;;;23.92;60.65
38780;BME280;29273;49.962;9.768;2023-06-22T03:02:11;99808.69;;;23.89;61.15
38780;BME280;29273;49.962;9.768;2023-06-22T03:04:37;99810.59;;;23.89;60.72
38780;BME280;29273;49.962;9.768;2023-06-22T03:07:03;99827.91;;;23.88;60.33
38780;BME280;29273;49.962;9.768;2023-06-22T03:09:30;99847.94;;;23.87;60.81
38780;BME280;29273;49.962;9.768;2023-06-22T03:11:57;99849.81;;;23.86;61.14
38780;BME280;29273;49.962;9.768;2023-06-22T03:14:26;99853.63;;;23.85;61.18
38780;BME280;29273;49.962;9.768;2023-06-22T03:16:52;99845.53;;;23.85;61.43
38780;BME280;29273;49.962;9.768;2023-06-22T03:19:18;99845.53;;;23.85;61.65
38780;BME280;29273;49.962;9.768;2023-06-22T03:21:44;99849.31;;;23.84;61.71
38780;BME280;29273;49.962;9.768;2023-06-22T03:24:10;99850.94;;;23.85;61.37
38780;BME280;29273;49.962;9.768;2023-06-22T03:26:37;99851.72;;;23.86;61.38
38780;BME280;29273;49.962;9.768;2023-06-22T03:29:02;99853.63;;;23.85;61.65
38780;BME280;29273;49.962;9.768;2023-06-22T03:31:29;99866.88;;;23.87;61.88
38780;BME280;29273;49.962;9.768;2023-06-22T03:33:55;99861.75;;;23.85;61.89
38780;BME280;29273;49.962;9.768;2023-06-22T03:36:22;99868.75;;;23.86;62.07
38780;BME280;29273;49.962;9.768;2023-06-22T03:38:49;99875.78;;;23.87;62.06
38780;BME280;29273;49.962;9.768;2023-06-22T03:41:15;99865.75;;;23.88;61.96
38780;BME280;29273;49.962;9.768;2023-06-22T03:43:42;99870.38;;;23.87;61.93
38780;BME280;29273;49.962;9.768;2023-06-22T03:46:08;99865.75;;;23.88;62.06
38780;BME280;29273;49.962;9.768;2023-06-22T03:48:33;99872.00;;;23.88;62.10
38780;BME280;29273;49.962;9.768;2023-06-22T03:50:59;99877.09;;;23.90;61.99
38780;BME280;29273;49.962;9.768;2023-06-22T03:53:25;99878.72;;;23.91;62.41
38780;BME280;29273;49.962;9.768;2023-06-22T03:55:52;99874.09;;;23.91;62.33
38780;BME280;29273;49.962;9.768;2023-06-22T03:58:19;99878.41;;;23.92;61.72
38780;BME280;29273;49.962;9.768;2023-06-22T04:00:52;99878.34;;;23.97;61.16
38780;BME280;29273;49.962;9.768;2023-06-22T04:03:18;99874.91;;;23.92;62.09
38780;BME280;29273;49.962;9.768;2023-06-22T04:05:45;99877.34;;;23.93;61.97
38780;BME280;29273;49.962;9.768;2023-06-22T04:08:13;99865.91;;;23.96;61.73
38780;BME280;29273;49.962;9.768;2023-06-22T04:10:38;99862.19;;;23.92;62.48
38780;BME280;29273;49.962;9.768;2023-06-22T04:13:04;99867.59;;;23.92;62.58
38780;BME280;29273;49.962;9.768;2023-06-22T04:15:29;99871.38;;;23.91;62.97
38780;BME280;29273;49.962;9.768;2023-06-22T04:17:55;99873.81;;;23.93;62.47
38780;BME280;29273;49.962;9.768;2023-06-22T04:20:21;99862.69;;;23.94;62.81
38780;BME280;29273;49.962;9.768;2023-06-22T04:22:47;99860.81;;;23.95;62.62
38780;BME280;29273;49.962;9.768;2023-06-22T04:25:12;99856.22;;;23.95;62.76
38780;BME280;29273;49.962;9.768;2023-06-22T04:27:38;99860.50;;;23.96;62.83
38780;BME280;29273;49.962;9.768;2023-06-22T04:30:08;99867.97;;;24.05;62.52
38780;BME280;29273;49.962;9.768;2023-06-22T04:32:35;99876.69;;;24.01;62.97
38780;BME280;29273;49.962;9.768;2023-06-22T04:35:05;99882.09;;;24.01;62.53
38780;BME280;29273;49.962;9.768;2023-06-22T04:37:32;99871.56;;;24.00;62.04
38780;BME280;29273;49.962;9.768;2023-06-22T04:39:57;99884.00;;;24.01;61.95
38780;BME280;29273;49.962;9.768;2023-06-22T04:42:27;99869.09;;;24.04;61.22
38780;BME280;29273;49.962;9.768;2023-06-22T04:44:53;99874.56;;;23.98;61.63
38780;BME280;29273;49.962;9.768;2023-06-22T04:47:19;99867.81;;;23.96;61.36
38780;BME280;29273;49.962;9.768;2023-06-22T04:49:44;99863.53;;;23.95;61.06
38780;BME280;29273;49.962;9.768;2023-06-22T04:52:11;99867.03;;;23.95;60.82
38780;BME280;29273;49.962;9.768;2023-06-22T04:54:38;99860.28;;;23.93;61.37
38780;BME280;29273;49.962;9.768;2023-06-22T04:57:05;99854.59;;;23.94;60.78
38780;BME280;29273;49.962;9.768;2023-06-22T04:59:36;99862.75;;;23.89;61.28
38780;BME280;29273;49.962;9.768;2023-06-22T05:02:02;99864.38;;;23.90;61.18
38780;BME280;29273;49.962;9.768;2023-06-22T05:04:29;99870.59;;;23.91;60.93
38780;BME280;29273;49.962;9.768;2023-06-22T05:06:59;99858.97;;;23.90;61.27
38780;BME280;29273;49.962;9.768;2023-06-22T05:09:25;99851.94;;;23.89;60.97
38780;BME280;29273;49.962;9.768;2023-06-22T05:11:51;99853.06;;;23.88;61.16
38780;BME280;29273;49.962;9.768;2023-06-22T05:14:17;99858.16;;;23.90;61.46
38780;BME280;29273;49.962;9.768;2023-06-22T05:16:44;99848.16;;;23.90;61.60
38780;BME280;29273;49.962;9.768;2023-06-22T05:19:10;99848.16;;;23.90;61.77
38780;BME280;29273;49.962;9.768;2023-06-22T05:21:36;99840.03;;;23.90;61.98
38780;BME280;29273;49.962;9.768;2023-06-22T05:24:02;99837.34;;;23.90;61.68
38780;BME280;29273;49.962;9.768;2023-06-22T05:26:33;99830.47;;;23.98;61.41
38780;BME280;29273;49.962;9.768;2023-06-22T05:29:00;99838.34;;;23.94;61.69
38780;BME280;29273;49.962;9.768;2023-06-22T05:31:26;99835.94;;;23.93;61.67
38780;BME280;29273;49.962;9.768;2023-06-22T05:33:53;99843.19;;;23.97;61.62
38780;BME280;29273;49.962;9.768;2023-06-22T05:36:19;99841.56;;;23.96;61.49
38780;BME280;29273;49.962;9.768;2023-06-22T05:38:47;99837.78;;;23.97;61.73
38780;BME280;29273;49.962;9.768;2023-06-22T05:41:13;99852.63;;;24.00;61.13
38780;BME280;29273;49.962;9.768;2023-06-22T05:43:39;99843.13;;;24.02;61.52
38780;BME280;29273;49.962;9.768;2023-06-22T05:46:05;99830.41;;;24.03;61.64
38780;BME280;29273;49.962;9.768;2023-06-22T05:48:30;99829.31;;;24.04;61.13
38780;BME280;29273;49.962;9.768;2023-06-22T05:50:56;99830.94;;;24.05;61.29
38780;BME280;29273;49.962;9.768;2023-06-22T05:53:21;99833.84;;;24.09;61.15
38780;BME280;29273;49.962;9.768;2023-06-22T05:55:47;99835.16;;;24.11;60.96
38780;BME280;29273;49.962;9.768;2023-06-22T05:58:13;99838.91;;;24.15;61.48
38780;BME280;29273;49.962;9.768;2023-06-22T06:00:39;99833.22;;;24.17;61.13
38780;BME280;29273;49.962;9.768;2023-06-22T06:03:06;99827.22;;;24.20;61.18
38780;BME280;29273;49.962;9.768;2023-06-22T06:05:33;99830.66;;;24.26;61.09
38780;BME280;29273;49.962;9.768;2023-06-22T06:08:03;99828.66;;;24.31;60.82
38780;BME280;29273;49.962;9.768;2023-06-22T06:10:30;99824.66;;;24.29;61.09
38780;BME280;29273;49.962;9.768;2023-06-22T06:12:56;99825.94;;;24.31;60.68
38780;BME280;29273;49.962;9.768;2023-06-22T06:15:22;99822.38;;;24.36;60.36
38780;BME280;29273;49.962;9.768;2023-06-22T06:17:49;99829.91;;;24.39;60.84
38780;BME280;29273;49.962;9.768;2023-06-22T06:20:18;99827.72;;;24.41;60.55
38780;BME280;29273;49.962;9.768;2023-06-22T06:22:44;99828.25;;;24.43;60.99
38780;BME280;29273;49.962;9.768;2023-06-22T06:25:09;99815.22;;;24.45;60.91
38780;BME280;29273;49.962;9.768;2023-06-22T06:27:35;99814.63;;;24.48;60.34
38780;BME280;29273;49.962;9.768;2023-06-22T06:30:01;99805.59;;;24.53;60.71
38780;BME280;29273;49.962;9.768;2023-06-22T06:32:27;99808.59;;;24.56;61.13
38780;BME280;29273;49.962;9.768;2023-06-22T06:34:53;99806.38;;;24.59;60.50
38780;BME280;29273;49.962;9.768;2023-06-22T06:37:18;99803.88;;;24.62;61.05
38780;BME280;29273;49.962;9.768;2023-06-22T06:39:44;99794.03;;;24.66;61.07
38780;BME280;29273;49.962;9.768;2023-06-22T06:42:09;99785.34;;;24.69;60.85
38780;BME280;29273;49.962;9.768;2023-06-22T06:44:36;99785.25;;;24.74;60.34
38780;BME280;29273;49.962;9.768;2023-06-22T06:47:04;99789.00;;;24.79;60.44
38780;BME280;29273;49.962;9.768;2023-06-22T06:49:29;99787.56;;;24.81;60.41
38780;BME280;29273;49.962;9.768;2023-06-22T06:51:55;99786.19;;;24.84;60.88
38780;BME280;29273;49.962;9.768;2023-06-22T06:54:21;99785.00;;;24.90;60.97
38780;BME280;29273;49.962;9.768;2023-06-22T06:56:47;99774.38;;;24.93;61.06
38780;BME280;29273;49.962;9.768;2023-06-22T06:59:14;99780.50;;;24.99;61.29
38780;BME280;29273;49.962;9.768;2023-06-22T07:01:41;99783.41;;;25.03;60.30
38780;BME280;29273;49.962;9.768;2023-06-22T07:04:07;99786.34;;;25.06;60.61
38780;BME280;29273;49.962;9.768;2023-06-22T07:06:32;99774.88;;;25.09;60.80
38780;BME280;29273;49.962;9.768;2023-06-22T07:08:59;99766.34;;;25.16;61.14
38780;BME280;29273;49.962;9.768;2023-06-22T07:11:25;99783.63;;;25.20;61.08
38780;BME280;29273;49.962;9.768;2023-06-22T07:13:50;99792.47;;;25.26;60.28
38780;BME280;29273;49.962;9.768;2023-06-22T07:16:16;99785.69;;;25.28;60.55
38780;BME280;29273;49.962;9.768;2023-06-22T07:18:41;99786.88;;;25.36;60.42
38780;BME280;29273;49.962;9.768;2023-06-22T07:21:07;99765.91;;;25.42;60.51
38780;BME280;29273;49.962;9.768;2023-06-22T07:23:33;99764.72;;;25.48;60.37
38780;BME280;29273;49.962;9.768;2023-06-22T07:25:58;99752.94;;;25.53;59.29
38780;BME280;29273;49.962;9.768;2023-06-22T07:28:28;99751.72;;;25.59;60.05
38780;BME280;29273;49.962;9.768;2023-06-22T07:30:57;99764.88;;;25.65;59.72
38780;BME280;29273;49.962;9.768;2023-06-22T07:33:22;99766.69;;;25.70;59.36
38780;BME280;29273;49.962;9.768;2023-06-22T07:35:48;99762.75;;;25.76;59.00
38780;BME280;29273;49.962;9.768;2023-06-22T07:38:13;99758.81;;;25.82;58.47
38780;BME280;29273;49.962;9.768;2023-06-22T07:40:40;99757.91;;;25.87;58.62
38780;BME280;29273;49.962;9.768;2023-06-22T07:43:07;99753.16;;;25.93;58.24
38780;BME280;29273;49.962;9.768;2023-06-22T07:45:32;99751.97;;;25.99;58.20
38780;BME280;29273;49.962;9.768;2023-06-22T07:48:00;99750.75;;;26.05;57.48
38780;BME280;29273;49.962;9.768;2023-06-22T07:50:26;99751.75;;;26.09;57.35
38780;BME280;29273;49.962;9.768;2023-06-22T07:52:51;99746.50;;;26.13;57.83
38780;BME280;29273;49.962;9.768;2023-06-22T07:55:18;99745.28;;;26.19;57.88
38780;BME280;29273;49.962;9.768;2023-06-22T07:57:43;99750.88;;;26.22;57.48
38780;BME280;29273;49.962;9.768;2023-06-22T08:00:09;99742.63;;;26.28;57.54
38780;BME280;29273;49.962;9.768;2023-06-22T08:02:44;99746.22;;;26.37;57.93
38780;BME280;29273;49.962;9.768;2023-06-22T08:05:10;99742.06;;;26.39;57.43
38780;BME280;29273;49.962;9.768;2023-06-22T08:07:37;99752.00;;;26.44;57.43
38780;BME280;29273;49.962;9.768;2023-06-22T08:10:10;99753.38;;;26.55;58.74
38780;BME280;29273;49.962;9.768;2023-06-22T08:12:36;99738.47;;;26.53;57.13
38780;BME280;29273;49.962;9.768;2023-06-22T08:15:02;99722.09;;;26.58;56.73
38780;BME280;29273;49.962;9.768;2023-06-22T08:17:28;99737.97;;;26.65;56.91
38780;BME280;29273;49.962;9.768;2023-06-22T08:19:53;99755.22;;;26.69;56.53
38780;BME280;29273;49.962;9.768;2023-06-22T08:22:19;99734.97;;;26.75;56.65
38780;BME280;29273;49.962;9.768;2023-06-22T08:24:44;99727.78;;;26.79;56.83
38780;BME280;29273;49.962;9.768;2023-06-22T08:27:10;99745.56;;;26.85;56.44
38780;BME280;29273;49.962;9.768;2023-06-22T08:29:40;99737.28;;;26.90;56.68
38780;BME280;29273;49.962;9.768;2023-06-22T08:32:10;99721.50;;;27.01;57.97
38780;BME280;29273;49.962;9.768;2023-06-22T08:34:36;99720.38;;;27.02;56.73
38780;BME280;29273;49.962;9.768;2023-06-22T08:37:01;99726.81;;;27.06;56.25
38780;BME280;29273;49.962;9.768;2023-06-22T08:39:32;99730.19;;;27.12;56.02
38780;BME280;29273;49.962;9.768;2023-06-22T08:41:57;99724.28;;;27.19;55.88
38780;BME280;29273;49.962;9.768;2023-06-22T08:44:23;99724.16;;;27.24;56.31
38780;BME280;29273;49.962;9.768;2023-06-22T08:46:48;99720.19;;;27.30;55.81
38780;BME280;29273;49.962;9.768;2023-06-22T08:49:14;99720.84;;;27.36;55.17
38780;BME280;29273;49.962;9.768;2023-06-22T08:51:39;99730.47;;;27.42;54.96
38780;BME280;29273;49.962;9.768;2023-06-22T08:54:04;99720.22;;;27.47;55.30
38780;BME280;29273;49.962;9.768;2023-06-22T08:56:30;99731.78;;;27.53;55.42
38780;BME280;29273;49.962;9.768;2023-06-22T08:58:55;99735.44;;;27.57;55.07
38780;BME280;29273;49.962;9.768;2023-06-22T09:01:21;99731.47;;;27.63;55.39
38780;BME280;29273;49.962;9.768;2023-06-22T09:03:47;99730.22;;;27.69;55.38
38780;BME280;29273;49.962;9.768;2023-06-22T09:06:20;99730.69;;;27.72;55.06
38780;BME280;29273;49.962;9.768;2023-06-22T09:08:47;99730.38;;;27.73;55.16
38780;BME280;29273;49.962;9.768;2023-06-22T09:11:13;99725.09;;;27.77;54.15
38780;BME280;29273;49.962;9.768;2023-06-22T09:13:38;99722.19;;;27.82;55.08
38780;BME280;29273;49.962;9.768;2023-06-22T09:16:04;99720.75;;;27.84;55.10
38780;BME280;29273;49.962;9.768;2023-06-22T09:18:29;99714.66;;;27.87;54.10
38780;BME280;29273;49.962;9.768;2023-06-22T09:20:55;99712.09;;;27.91;53.72
38780;BME280;29273;49.962;9.768;2023-06-22T09:23:21;99708.47;;;27.96;52.88
38780;BME280;29273;49.962;9.768;2023-06-22T09:25:47;99698.53;;;28.00;53.83
38780;BME280;29273;49.962;9.768;2023-06-22T09:28:14;99705.25;;;28.02;53.92
38780;BME280;29273;49.962;9.768;2023-06-22T09:30:39;99703.00;;;28.04;54.43
38780;BME280;29273;49.962;9.768;2023-06-22T09:33:05;99711.69;;;28.07;54.07
38780;BME280;29273;49.962;9.768;2023-06-22T09:35:30;99703.66;;;28.10;54.24
38780;BME280;29273;49.962;9.768;2023-06-22T09:37:55;99694.84;;;28.13;52.49
38780;BME280;29273;49.962;9.768;2023-06-22T09:40:21;99704.59;;;28.14;53.39
38780;BME280;29273;49.962;9.768;2023-06-22T09:42:46;99704.28;;;28.16;53.86
38780;BME280;29273;49.962;9.768;2023-06-22T09:45:12;99695.78;;;28.17;54.14
38780;BME280;29273;49.962;9.768;2023-06-22T09:47:37;99692.44;;;28.20;54.34
38780;BME280;29273;49.962;9.768;2023-06-22T09:50:04;99697.25;;;28.23;53.83
38780;BME280;29273;49.962;9.768;2023-06-22T09:52:29;99706.03;;;28.29;54.11
38780;BME280;29273;49.962;9.768;2023-06-22T09:54:55;99692.56;;;28.33;53.29
38780;BME280;29273;49.962;9.768;2023-06-22T09:57:20;99691.59;;;28.37;53.31
38780;BME280;29273;49.962;9.768;2023-06-22T09:59:46;99690.94;;;28.40;53.38
38780;BME280;29273;49.962;9.768;2023-06-22T10:02:11;99683.41;;;28.46;52.71
38780;BME280;29273;49.962;9.768;2023-06-22T10:04:37;99680.84;;;28.50;53.07
38780;BME280;29273;49.962;9.768;2023-06-22T10:07:02;99673.00;;;28.57;53.54
38780;BME280;29273;49.962;9.768;2023-06-22T10:09:28;99680.53;;;28.60;53.48
38780;BME280;29273;49.962;9.768;2023-06-22T10:11:53;99677.63;;;28.65;52.01
38780;BME280;29273;49.962;9.768;2023-06-22T10:14:19;99673.91;;;28.70;52.72
38780;BME280;29273;49.962;9.768;2023-06-22T10:16:45;99678.03;;;28.76;52.91
38780;BME280;29273;49.962;9.768;2023-06-22T10:19:10;99667.31;;;28.79;51.50
38780;BME280;29273;49.962;9.768;2023-06-22T10:21:36;99671.44;;;28.86;51.79
38780;BME280;29273;49.962;9.768;2023-06-22T10:24:02;99663.06;;;28.91;51.73
38780;BME280;29273;49.962;9.768;2023-06-22T10:26:34;99660.47;;;29.03;53.72
38780;BME280;29273;49.962;9.768;2023-06-22T10:29:02;99649.56;;;29.03;52.00
38780;BME280;29273;49.962;9.768;2023-06-22T10:31:27;99651.28;;;29.08;51.39
38780;BME280;29273;49.962;9.768;2023-06-22T10:33:54;99641.00;;;29.13;51.06
38780;BME280;29273;49.962;9.768;2023-06-22T10:36:20;99635.38;;;29.19;49.99
38780;BME280;29273;49.962;9.768;2023-06-22T10:38:46;99628.94;;;29.23;49.93
38780;BME280;29273;49.962;9.768;2023-06-22T10:41:12;99620.56;;;29.28;49.91
38780;BME280;29273;49.962;9.768;2023-06-22T10:43:38;99619.56;;;29.33;49.85
38780;BME280;29273;49.962;9.768;2023-06-22T10:46:03;99615.81;;;29.38;48.74
38780;BME280;29273;49.962;9.768;2023-06-22T10:48:28;99621.09;;;29.43;47.46
38780;BME280;29273;49.962;9.768;2023-06-22T10:50:54;99620.91;;;29.48;47.93
38780;BME280;29273;49.962;9.768;2023-06-22T10:53:20;99614.09;;;29.54;48.52
38780;BME280;29273;49.962;9.768;2023-06-22T10:55:47;99614.22;;;29.58;47.88
38780;BME280;29273;49.962;9.768;2023-06-22T10:58:12;99606.97;;;29.62;48.06
38780;BME280;29273;49.962;9.768;2023-06-22T11:00:37;99598.91;;;29.65;47.26
38780;BME280;29273;49.962;9.768;2023-06-22T11:03:03;99604.50;;;29.69;47.78
38780;BME280;29273;49.962;9.768;2023-06-22T11:05:28;99598.38;;;29.72;46.57
38780;BME280;29273;49.962;9.768;2023-06-22T11:07:54;99596.25;;;29.78;47.78
38780;BME280;29273;49.962;9.768;2023-06-22T11:10:19;99587.88;;;29.83;46.84
38780;BME280;29273;49.962;9.768;2023-06-22T11:12:45;99586.06;;;29.87;47.99
38780;BME280;29273;49.962;9.768;2023-06-22T11:15:10;99581.97;;;29.93;46.92
38780;BME280;29273;49.962;9.768;2023-06-22T11:17:36;99584.81;;;29.97;46.54
38780;BME280;29273;49.962;9.768;2023-06-22T11:20:02;99587.00;;;30.03;46.76
38780;BME280;29273;49.962;9.768;2023-06-22T11:22:31;99584.06;;;30.08;46.63
38780;BME280;29273;49.962;9.768;2023-06-22T11:24:58;99573.69;;;30.14;46.47
38780;BME280;29273;49.962;9.768;2023-06-22T11:27:24;99566.09;;;30.20;47.43
38780;BME280;29273;49.962;9.768;2023-06-22T11:29:49;99559.63;;;30.24;46.23
38780;BME280;29273;49.962;9.768;2023-06-22T11:32:15;99563.72;;;30.31;46.29
38780;BME280;29273;49.962;9.768;2023-06-22T11:34:40;99561.59;;;30.36;45.95
38780;BME280;29273;49.962;9.768;2023-06-22T11:37:06;99554.41;;;30.44;46.02
38780;BME280;29273;49.962;9.768;2023-06-22T11:39:31;99554.66;;;30.51;46.42
38780;BME280;29273;49.962;9.768;2023-06-22T11:41:57;99547.13;;;30.60;46.23
38780;BME280;29273;49.962;9.768;2023-06-22T11:44:22;99540.75;;;30.69;43.82
38780;BME280;29273;49.962;9.768;2023-06-22T11:46:48;99530.16;;;30.79;44.04
38780;BME280;29273;49.962;9.768;2023-06-22T11:49:13;99527.28;;;30.88;44.05
38780;BME280;29273;49.962;9.768;2023-06-22T11:51:39;99516.00;;;31.02;44.92
38780;BME280;29273;49.962;9.768;2023-06-22T11:54:04;99524.03;;;31.11;44.03
38780;BME280;29273;49.962;9.768;2023-06-22T11:56:30;99517.28;;;31.21;43.98
38780;BME280;29273;49.962;9.768;2023-06-22T11:58:55;99517.94;;;31.30;43.19
38780;BME280;29273;49.962;9.768;2023-06-22T12:01:21;99510.03;;;31.41;43.80
38780;BME280;29273;49.962;9.768;2023-06-22T12:03:46;99503.16;;;31.47;43.25
38780;BME280;29273;49.962;9.768;2023-06-22T12:06:13;99492.78;;;31.52;42.95
38780;BME280;29273;49.962;9.768;2023-06-22T12:08:38;99493.69;;;31.57;42.38
38780;BME280;29273;49.962;9.768;2023-06-22T12:11:04;99502.44;;;31.62;43.24
38780;BME280;29273;49.962;9.768;2023-06-22T12:13:29;99494.31;;;31.66;41.76
38780;BME280;29273;49.962;9.768;2023-06-22T12:15:55;99499.88;;;31.69;41.86
38780;BME280;29273;49.962;9.768;2023-06-22T12:18:20;99499.16;;;31.72;41.14
38780;BME280;29273;49.962;9.768;2023-06-22T12:20:47;99498.13;;;31.77;41.76
38780;BME280;29273;49.962;9.768;2023-06-22T12:23:13;99489.63;;;31.82;42.47
38780;BME280;29273;49.962;9.768;2023-06-22T12:25:39;99487.81;;;31.86;41.70
38780;BME280;29273;49.962;9.768;2023-06-22T12:28:04;99482.06;;;31.91;41.42
38780;BME280;29273;49.962;9.768;2023-06-22T12:30:30;99464.94;;;31.95;41.35
38780;BME280;29273;49.962;9.768;2023-06-22T12:32:55;99454.41;;;31.97;42.10
38780;BME280;29273;49.962;9.768;2023-06-22T12:35:21;99456.00;;;31.98;41.19
38780;BME280;29273;49.962;9.768;2023-06-22T12:37:46;99450.16;;;31.99;41.68
38780;BME280;29273;49.962;9.768;2023-06-22T12:40:12;99456.88;;;32.02;41.46
38780;BME280;29273;49.962;9.768;2023-06-22T12:42:37;99458.91;;;32.05;43.00
38780;BME280;29273;49.962;9.768;2023-06-22T12:45:03;99455.84;;;32.06;40.82
38780;BME280;29273;49.962;9.768;2023-06-22T12:47:30;99453.19;;;32.10;41.34
38780;BME280;29273;49.962;9.768;2023-06-22T12:49:55;99459.44;;;32.11;40.64
38780;BME280;29273;49.962;9.768;2023-06-22T12:52:20;99463.44;;;32.13;39.99
38780;BME280;29273;49.962;9.768;2023-06-22T12:54:46;99454.50;;;32.16;40.43
38780;BME280;29273;49.962;9.768;2023-06-22T12:57:11;99457.34;;;32.20;40.55
38780;BME280;29273;49.962;9.768;2023-06-22T12:59:37;99457.41;;;32.23;41.75